Time;durP1;ratioP1;P1;durP2;ratioP2;P2;SDS_P1;SDS_P2;PMS_P1;PMS_P2;Temp;Humidity;BMP_temperature;BMP_pressure;BME280_temperature;BME280_humidity;BME280_pressure;Samples;Min_cycle;Max_cycle;Signal;HPM_P1;HPM_P2
2022/09/09 00:00:55;;;;;;;24.40;13.07;;;;;;;15.82;100.00;98915.59;8399633;28;20124;-81
2022/09/09 00:05:27;;;;;;;18.10;12.43;;;;;;;15.68;100.00;98909.75;8404175;28;20195;-82
2022/09/09 00:09:31;;;;;;;16.35;11.70;;;;;;;15.61;100.00;98911.16;8335299;28;20538;-82
2022/09/09 00:13:38;;;;;;;21.27;11.68;;;;;;;15.54;100.00;98910.16;8335070;28;20056;-81
2022/09/09 00:17:43;;;;;;;18.95;11.57;;;;;;;15.45;100.00;98912.19;8324437;28;20474;-81
2022/09/09 00:22:01;;;;;;;19.92;10.82;;;;;;;15.40;100.00;98909.72;8317380;28;20046;-82
2022/09/09 00:26:20;;;;;;;16.52;10.13;;;;;;;15.33;100.00;98920.41;8330774;28;20052;-82
2022/09/09 00:30:26;;;;;;;16.98;10.55;;;;;;;15.26;100.00;98920.97;8337078;28;20418;-82
2022/09/09 00:34:28;;;;;;;13.38;9.38;;;;;;;15.17;100.00;98912.16;8338856;28;20106;-82
2022/09/09 00:38:33;;;;;;;12.45;9.25;;;;;;;15.11;100.00;98918.97;8367685;28;20048;-82
2022/09/09 00:42:44;;;;;;;15.63;9.70;;;;;;;15.04;100.00;98918.75;8416668;28;20471;-82
2022/09/09 00:46:56;;;;;;;13.32;8.45;;;;;;;14.99;100.00;98921.72;8408780;28;20052;-82
2022/09/09 00:51:01;;;;;;;11.20;7.43;;;;;;;14.92;100.00;98916.03;8424559;28;20078;-83
2022/09/09 00:55:40;;;;;;;10.65;7.90;;;;;;;14.87;99.95;98924.44;8331096;28;20054;-83
2022/09/09 00:59:46;;;;;;;12.45;7.38;;;;;;;14.79;99.50;98924.22;8330792;28;20533;-83
2022/09/09 01:03:55;;;;;;;9.38;7.10;;;;;;;14.71;99.23;98919.69;8323866;28;20533;-83
2022/09/09 01:07:58;;;;;;;12.70;7.82;;;;;;;14.66;99.01;98930.78;8344587;28;20457;-82
2022/09/09 01:12:04;;;;;;;10.82;7.95;;;;;;;14.65;98.96;98923.75;8332680;28;20442;-82
2022/09/09 01:16:08;;;;;;;11.75;6.47;;;;;;;14.60;98.73;98932.13;8345516;28;20052;-82
2022/09/09 01:20:17;;;;;;;11.30;6.93;;;;;;;14.54;98.96;98928.06;8321089;28;20057;-82
2022/09/09 01:24:47;;;;;;;10.55;6.60;;;;;;;14.50;98.84;98927.16;8332717;28;20049;-82
2022/09/09 01:28:52;;;;;;;14.02;6.72;;;;;;;14.48;98.61;98934.06;8336166;28;20069;-82
2022/09/09 01:33:00;;;;;;;15.32;7.00;;;;;;;14.44;98.38;98928.50;8382822;28;20057;-83
2022/09/09 01:37:09;;;;;;;13.80;6.67;;;;;;;14.39;98.35;98934.16;8416345;28;20040;-82
2022/09/09 01:41:10;;;;;;;10.25;6.20;;;;;;;14.35;98.55;98935.94;8328861;28;20288;-82
2022/09/09 01:45:11;;;;;;;10.40;6.65;;;;;;;14.28;98.29;98930.25;8385040;28;20194;-83
2022/09/09 01:49:12;;;;;;;10.20;6.78;;;;;;;14.24;98.36;98937.50;8380995;28;20148;-82
2022/09/09 01:53:16;;;;;;;11.35;5.95;;;;;;;14.20;98.45;98936.59;8355946;28;20485;-82
2022/09/09 01:57:31;;;;;;;9.02;5.75;;;;;;;14.16;98.33;98943.81;8367276;28;20148;-82
2022/09/09 02:02:10;;;;;;;11.27;5.45;;;;;;;14.11;98.27;98942.13;8353471;28;20040;-82
2022/09/09 02:06:11;;;;;;;10.95;5.18;;;;;;;14.10;98.08;98945.16;8335658;28;20060;-83
2022/09/09 02:10:20;;;;;;;9.73;5.28;;;;;;;14.04;97.94;98941.06;8374185;28;20091;-83
2022/09/09 02:14:29;;;;;;;11.30;4.80;;;;;;;13.96;97.99;98950.88;8368197;28;20451;-82
2022/09/09 02:19:04;;;;;;;7.38;4.15;;;;;;;13.92;98.21;98956.19;8391611;28;20118;-82
2022/09/09 02:23:08;;;;;;;12.25;4.20;;;;;;;13.89;98.09;98946.00;8411253;28;20044;-82
2022/09/09 02:27:09;;;;;;;11.77;4.30;;;;;;;13.87;98.01;98964.53;8408682;28;20056;-83
2022/09/09 02:31:10;;;;;;;8.20;4.40;;;;;;;13.81;97.94;98965.88;8404723;28;20056;-82
2022/09/09 02:35:18;;;;;;;6.20;3.90;;;;;;;13.74;98.19;98960.22;8406131;28;20057;-82
2022/09/09 02:39:19;;;;;;;4.83;3.83;;;;;;;13.74;98.26;98971.06;8408042;28;20396;-82
2022/09/09 02:43:20;;;;;;;7.07;3.42;;;;;;;13.70;97.85;98970.13;8416940;28;20516;-82
2022/09/09 02:47:28;;;;;;;7.38;3.65;;;;;;;13.68;97.94;98966.97;8405559;28;20052;-82
2022/09/09 02:51:45;;;;;;;8.35;3.53;;;;;;;13.63;97.91;98980.72;8409702;28;20044;-81
2022/09/09 02:55:57;;;;;;;8.60;3.85;;;;;;;13.60;97.97;98983.28;8397252;28;20127;-81
2022/09/09 02:59:58;;;;;;;10.30;4.03;;;;;;;13.57;97.97;98981.25;8396137;28;20060;-81
2022/09/09 03:03:59;;;;;;;11.55;4.53;;;;;;;13.54;98.00;98990.84;8414686;28;20049;-82
2022/09/09 03:08:01;;;;;;;8.82;4.20;;;;;;;13.49;98.07;98985.59;8409614;28;20101;-82
2022/09/09 03:12:04;;;;;;;6.20;4.18;;;;;;;13.46;98.06;98997.94;8399964;28;20061;-82
2022/09/09 03:16:05;;;;;;;8.60;4.03;;;;;;;13.44;98.21;98994.72;8400113;28;20044;-82
2022/09/09 03:20:07;;;;;;;7.75;4.22;;;;;;;13.41;98.28;99000.03;8409146;28;20068;-82
2022/09/09 03:24:09;;;;;;;4.82;3.85;;;;;;;13.40;98.17;98998.44;8418410;28;20072;-81
2022/09/09 03:28:11;;;;;;;19.20;4.47;;;;;;;13.37;98.14;99004.53;8393904;28;20052;-82
2022/09/09 03:32:12;;;;;;;6.80;3.70;;;;;;;13.34;98.13;99005.97;8392221;28;20079;-83
2022/09/09 03:36:14;;;;;;;10.05;3.78;;;;;;;13.31;98.12;99001.22;8379002;28;20808;-82
2022/09/09 03:40:15;;;;;;;9.00;3.60;;;;;;;13.28;98.15;99011.91;8374928;28;20060;-82
2022/09/09 03:44:16;;;;;;;8.95;3.67;;;;;;;13.22;98.20;99007.81;8408811;28;20417;-82
2022/09/09 03:48:18;;;;;;;9.23;3.33;;;;;;;13.20;98.20;99018.19;8427434;28;20067;-83
2022/09/09 03:52:19;;;;;;;3.53;3.08;;;;;;;13.18;98.24;99012.28;8395436;28;20519;-83
2022/09/09 03:56:21;;;;;;;4.43;3.17;;;;;;;13.16;98.19;99014.56;8400458;28;20041;-82
2022/09/09 04:00:22;;;;;;;5.38;3.40;;;;;;;13.11;98.31;99013.59;8400871;28;20044;-82
2022/09/09 04:04:23;;;;;;;5.10;3.50;;;;;;;13.09;98.24;99021.25;8422639;28;20052;-83
2022/09/09 04:08:27;;;;;;;4.93;3.60;;;;;;;13.08;98.25;99014.25;8420172;28;20048;-83
2022/09/09 04:12:28;;;;;;;4.68;3.20;;;;;;;13.08;98.41;99025.09;8409306;28;20048;-82
2022/09/09 04:16:29;;;;;;;5.90;3.30;;;;;;;13.06;98.16;99027.31;8413814;28;20135;-83
2022/09/09 04:20:30;;;;;;;4.53;3.42;;;;;;;13.01;98.03;99024.78;8403593;28;20056;-82
2022/09/09 04:24:31;;;;;;;4.22;3.08;;;;;;;12.99;98.17;99027.03;8406962;28;20477;-82
2022/09/09 04:28:35;;;;;;;6.25;3.47;;;;;;;12.96;98.12;99032.31;8405310;28;20036;-82
2022/09/09 04:32:36;;;;;;;5.28;3.03;;;;;;;12.95;97.93;99036.97;8417263;28;20112;-82
2022/09/09 04:36:39;;;;;;;6.93;3.80;;;;;;;12.95;97.85;99031.53;8396093;28;20048;-82
2022/09/09 04:40:42;;;;;;;6.25;4.10;;;;;;;12.94;97.72;99024.53;8424879;28;20059;-81
2022/09/09 04:44:43;;;;;;;5.38;3.72;;;;;;;12.93;97.90;99038.38;8417094;28;20036;-82
2022/09/09 04:48:44;;;;;;;4.57;4.18;;;;;;;12.92;98.01;99029.47;8405216;28;20139;-82
2022/09/09 04:52:45;;;;;;;9.65;4.70;;;;;;;12.95;97.80;99030.75;8413856;28;20052;-82
2022/09/09 04:56:46;;;;;;;11.50;5.13;;;;;;;12.96;97.80;99033.09;8409767;28;20048;-82
2022/09/09 05:00:47;;;;;;;8.05;6.20;;;;;;;12.98;97.78;99030.88;8414764;28;20060;-82
2022/09/09 05:04:49;;;;;;;15.27;8.50;;;;;;;13.04;97.69;99034.19;8416885;28;20048;-82
2022/09/09 05:08:51;;;;;;;12.50;7.55;;;;;;;13.09;97.74;99032.09;8412143;28;20071;-82
2022/09/09 05:12:53;;;;;;;11.35;8.52;;;;;;;13.17;97.58;99043.22;8376451;28;20048;-81
2022/09/09 05:16:55;;;;;;;13.10;9.02;;;;;;;13.24;97.60;99038.09;8421481;28;20401;-82
2022/09/09 05:21:00;;;;;;;18.60;11.07;;;;;;;13.32;97.85;99040.00;8417854;28;20044;-82
2022/09/09 05:25:01;;;;;;;18.42;12.73;;;;;;;13.41;97.66;99043.44;8405000;28;20047;-81
2022/09/09 05:29:02;;;;;;;18.48;12.98;;;;;;;13.52;97.52;99044.66;8426472;28;20098;-81
2022/09/09 05:33:03;;;;;;;23.30;17.20;;;;;;;13.61;97.69;99053.50;8408837;28;20040;-79
2022/09/09 05:37:04;;;;;;;26.88;18.30;;;;;;;13.72;98.13;99046.56;8376836;28;20101;-81
2022/09/09 05:41:07;;;;;;;32.22;22.08;;;;;;;13.82;98.68;99059.75;8424466;28;20044;-81
2022/09/09 05:45:08;;;;;;;27.48;20.20;;;;;;;13.92;98.84;99048.50;8431541;28;20097;-81
2022/09/09 05:49:10;;;;;;;29.40;21.73;;;;;;;14.01;99.11;99051.13;8412269;28;20375;-82
2022/09/09 05:53:11;;;;;;;30.35;19.38;;;;;;;14.09;99.08;99054.91;8417186;28;20059;-82
2022/09/09 05:57:12;;;;;;;22.25;15.05;;;;;;;14.15;99.63;99056.28;8409923;28;20056;-82
2022/09/09 06:01:16;;;;;;;23.92;15.77;;;;;;;14.20;99.63;99058.81;8388153;28;20056;-82
2022/09/09 06:05:17;;;;;;;21.27;16.80;;;;;;;14.27;100.00;99056.34;8398964;28;20552;-83
2022/09/09 06:09:18;;;;;;;16.98;13.00;;;;;;;14.33;100.00;99057.72;8396150;28;20053;-82
2022/09/09 06:13:19;;;;;;;17.60;12.30;;;;;;;14.40;100.00;99063.44;8418903;28;20047;-81
2022/09/09 06:17:19;;;;;;;16.42;11.88;;;;;;;14.50;100.00;99057.56;8389587;28;20047;-82
2022/09/09 06:21:23;;;;;;;16.77;10.18;;;;;;;14.60;100.00;99062.59;8375445;28;20148;-82
2022/09/09 06:25:24;;;;;;;10.68;9.20;;;;;;;14.69;100.00;99055.16;8390780;28;20447;-82
2022/09/09 06:29:25;;;;;;;10.73;8.52;;;;;;;14.78;100.00;99058.56;8382590;28;20054;-83
2022/09/09 06:33:30;;;;;;;11.63;8.02;;;;;;;14.89;100.00;99052.69;8330559;28;20061;-83
2022/09/09 06:37:32;;;;;;;14.27;10.02;;;;;;;14.98;100.00;99051.44;8325839;28;20640;-82
2022/09/09 06:41:33;;;;;;;13.45;9.63;;;;;;;15.07;100.00;99054.03;8324965;28;20081;-82
2022/09/09 06:45:36;;;;;;;15.35;10.38;;;;;;;15.15;100.00;99045.00;8304030;28;20042;-82
2022/09/09 06:49:37;;;;;;;12.68;9.73;;;;;;;15.26;100.00;99040.69;8310235;28;20111;-82
2022/09/09 06:53:39;;;;;;;15.55;10.00;;;;;;;15.42;100.00;99049.75;8325942;28;20495;-81
2022/09/09 06:57:40;;;;;;;12.13;9.65;;;;;;;15.57;100.00;99051.78;8325844;28;20552;-81
2022/09/09 07:01:46;;;;;;;9.75;6.10;;;;;;;15.79;100.00;99057.88;8322199;28;20053;-81
2022/09/09 07:05:55;;;;;;;12.55;5.75;;;;;;;15.96;100.00;99063.06;8398761;28;20056;-79
2022/09/09 07:09:57;;;;;;;6.75;4.95;;;;;;;16.06;100.00;99065.31;8409387;28;20394;-79
2022/09/09 07:13:59;;;;;;;11.93;9.07;;;;;;;16.18;100.00;99059.78;8398914;28;20037;-81
2022/09/09 07:18:03;;;;;;;20.30;11.38;;;;;;;16.34;100.00;99068.81;8420484;28;20092;-80
2022/09/09 07:22:06;;;;;;;17.63;9.43;;;;;;;16.45;99.99;99064.44;8401955;28;20048;-80
2022/09/09 07:26:11;;;;;;;8.90;5.63;;;;;;;16.59;100.00;99074.19;8394084;28;20462;-81
2022/09/09 07:30:12;;;;;;;5.65;3.03;;;;;;;16.71;98.62;99076.84;8421559;28;20049;-81
2022/09/09 07:34:13;;;;;;;7.30;3.20;;;;;;;16.72;97.79;99078.41;8418580;28;20110;-81
2022/09/09 07:38:14;;;;;;;4.20;2.60;;;;;;;16.70;97.24;99080.72;8378918;28;20089;-80
2022/09/09 07:42:15;;;;;;;5.45;2.38;;;;;;;16.72;96.57;99078.41;8391127;28;20049;-81
2022/09/09 07:46:19;;;;;;;3.45;2.50;;;;;;;16.74;96.35;99095.22;8403289;28;20499;-83
2022/09/09 07:50:20;;;;;;;5.82;3.20;;;;;;;16.82;96.47;99083.34;8400532;28;20045;-82
2022/09/09 07:54:23;;;;;;;4.15;2.70;;;;;;;16.94;96.26;99088.75;8401372;28;20560;-83
2022/09/09 07:58:24;;;;;;;6.88;2.70;;;;;;;17.15;95.97;99081.09;8392937;28;20044;-81
2022/09/09 08:02:29;;;;;;;7.20;3.65;;;;;;;17.24;96.09;99078.97;8415574;28;20052;-81
2022/09/09 08:06:34;;;;;;;3.38;2.67;;;;;;;17.29;96.09;99086.88;8420240;28;20501;-80
2022/09/09 08:10:35;;;;;;;5.68;3.08;;;;;;;17.30;95.47;99093.94;8434475;28;20055;-82
2022/09/09 08:14:36;;;;;;;5.57;3.20;;;;;;;17.50;95.48;99091.28;8420055;28;20055;-83
2022/09/09 08:18:38;;;;;;;4.90;1.73;;;;;;;17.58;92.69;99098.50;8420428;28;20094;-79
2022/09/09 08:22:39;;;;;;;3.63;1.88;;;;;;;17.66;91.17;99105.72;8419816;28;20396;-79
2022/09/09 08:26:42;;;;;;;4.47;1.67;;;;;;;17.85;88.81;99100.31;8434041;28;20055;-81
2022/09/09 08:30:43;;;;;;;6.18;2.20;;;;;;;17.97;88.82;99094.75;8433288;28;20200;-79
2022/09/09 08:34:44;;;;;;;4.82;1.88;;;;;;;18.18;88.93;99096.34;8409406;28;20044;-80
2022/09/09 08:38:56;;;;;;;3.58;2.10;;;;;;;18.27;87.94;99096.91;8414078;28;20040;-80
2022/09/09 08:42:58;;;;;;;4.57;2.55;;;;;;;18.32;87.16;99102.09;8403844;28;20043;-80
2022/09/09 08:47:17;;;;;;;5.07;2.10;;;;;;;18.46;85.53;99105.09;8409368;28;20451;-79
2022/09/09 08:51:20;;;;;;;7.63;2.03;;;;;;;18.52;85.76;99092.72;8419124;28;20063;-79
2022/09/09 08:55:27;;;;;;;4.22;1.67;;;;;;;18.57;85.22;99095.19;8398512;28;20295;-80
2022/09/09 08:59:28;;;;;;;8.43;2.00;;;;;;;18.67;84.65;99094.59;8408854;28;20059;-81
2022/09/09 09:04:07;;;;;;;3.90;2.30;;;;;;;18.79;85.41;99097.19;8418841;28;20051;-78
2022/09/09 09:08:21;;;;;;;2.67;1.65;;;;;;;18.93;83.40;99102.88;8432461;28;20067;-82
2022/09/09 09:12:24;;;;;;;5.75;2.08;;;;;;;19.04;82.74;99107.75;8415265;28;20047;-81
2022/09/09 09:16:56;;;;;;;6.25;2.05;;;;;;;19.15;82.50;99114.22;8395033;28;20432;-81
2022/09/09 09:21:18;;;;;;;4.50;1.33;;;;;;;19.17;80.70;99107.22;8395244;28;20516;-79
2022/09/09 09:25:36;;;;;;;2.72;1.38;;;;;;;19.22;80.79;99103.41;8401135;28;20044;-80
2022/09/09 09:29:38;;;;;;;4.00;1.45;;;;;;;19.41;79.91;99108.78;8340577;28;20040;-80
2022/09/09 09:33:53;;;;;;;3.13;1.30;;;;;;;19.54;77.47;99110.22;8418380;28;20060;-83
2022/09/09 09:37:54;;;;;;;7.25;1.85;;;;;;;19.60;75.88;99108.75;8381366;28;20079;-81
2022/09/09 09:41:56;;;;;;;3.40;1.38;;;;;;;19.62;75.45;99109.16;8422016;28;20401;-81
2022/09/09 09:45:58;;;;;;;3.83;1.30;;;;;;;19.71;74.64;99120.66;8385343;28;20059;-81
2022/09/09 09:50:01;;;;;;;3.75;1.30;;;;;;;19.88;73.55;99118.53;8431414;28;20488;-81
2022/09/09 09:54:09;;;;;;;3.85;1.60;;;;;;;19.98;74.22;99117.91;8413879;28;20048;-81
2022/09/09 09:58:15;;;;;;;2.75;1.40;;;;;;;19.99;74.09;99119.47;8429326;28;20047;-82
2022/09/09 10:02:26;;;;;;;4.18;1.65;;;;;;;20.16;74.13;99121.66;8425980;28;20064;-81
2022/09/09 10:06:34;;;;;;;4.13;2.05;;;;;;;20.33;74.12;99112.91;8423588;28;20060;-80
2022/09/09 10:10:48;;;;;;;5.30;2.03;;;;;;;20.41;73.63;99125.53;8425576;28;20055;-81
2022/09/09 10:14:58;;;;;;;6.85;1.60;;;;;;;20.55;73.00;99120.22;8405614;28;20052;-85
2022/09/09 10:19:15;;;;;;;5.22;1.83;;;;;;;20.47;73.21;99135.00;8404971;28;20040;-83
2022/09/09 10:23:52;;;;;;;5.28;1.80;;;;;;;20.35;72.44;99121.56;8386168;28;20105;-84
2022/09/09 10:28:14;;;;;;;6.50;2.10;;;;;;;20.20;71.69;99122.47;8410168;28;20477;-81
2022/09/09 10:32:27;;;;;;;7.45;2.00;;;;;;;20.22;72.12;99133.88;8410991;28;20052;-82
2022/09/09 10:36:29;;;;;;;5.18;2.05;;;;;;;20.26;72.00;99129.22;8405187;28;20058;-82
2022/09/09 10:40:51;;;;;;;7.32;2.10;;;;;;;20.12;72.60;99129.06;8396887;28;20052;-82
2022/09/09 10:45:08;;;;;;;4.97;1.92;;;;;;;20.39;72.81;99133.34;8389033;28;20040;-82
2022/09/09 10:49:30;;;;;;;6.40;2.15;;;;;;;20.82;72.22;99122.88;8394312;28;20040;-84
2022/09/09 10:53:37;;;;;;;8.57;2.40;;;;;;;21.02;71.05;99118.75;8405816;28;20105;-83
2022/09/09 10:57:49;;;;;;;6.13;1.92;;;;;;;21.24;70.14;99112.34;8430121;28;20512;-81
2022/09/09 11:01:57;;;;;;;5.88;2.00;;;;;;;21.38;70.17;99112.44;8414502;28;20123;-83
2022/09/09 11:06:02;;;;;;;5.70;1.60;;;;;;;21.42;69.14;99110.50;8429606;28;20040;-82
2022/09/09 11:10:11;;;;;;;2.30;1.20;;;;;;;21.48;68.01;99111.75;8359464;28;20472;-81
2022/09/09 11:14:20;;;;;;;3.88;1.73;;;;;;;21.59;67.50;99111.03;8330704;28;20147;-82
2022/09/09 11:18:22;;;;;;;2.75;1.30;;;;;;;21.75;67.62;99114.28;8341787;28;20114;-81
2022/09/09 11:22:29;;;;;;;6.45;1.20;;;;;;;21.89;66.73;99108.88;8365303;28;20118;-82
2022/09/09 11:26:45;;;;;;;5.60;1.50;;;;;;;22.04;66.36;99116.06;8365786;28;20068;-81
2022/09/09 11:30:57;;;;;;;4.43;1.08;;;;;;;22.08;65.48;99111.38;8362813;28;20052;-82
2022/09/09 11:35:20;;;;;;;6.50;1.35;;;;;;;21.98;65.74;99123.09;8354185;28;20041;-83
2022/09/09 11:39:30;;;;;;;2.47;1.17;;;;;;;22.06;65.49;99119.22;8362267;28;20721;-83
2022/09/09 11:43:33;;;;;;;5.82;1.35;;;;;;;21.96;65.48;99119.94;8354194;28;20111;-82
2022/09/09 11:47:34;;;;;;;7.70;1.38;;;;;;;21.77;66.61;99122.94;8388369;28;20062;-83
2022/09/09 11:51:35;;;;;;;4.38;1.20;;;;;;;21.86;65.34;99115.13;8434822;28;20047;-82
2022/09/09 11:55:36;;;;;;;3.97;1.45;;;;;;;21.85;65.60;99108.06;8420231;28;20739;-83
2022/09/09 11:59:37;;;;;;;9.43;1.50;;;;;;;21.77;65.26;99117.44;8434362;28;20048;-82
2022/09/09 12:03:43;;;;;;;2.13;1.17;;;;;;;22.09;63.83;99112.97;8434283;28;20073;-85
2022/09/09 12:07:53;;;;;;;5.05;1.10;;;;;;;22.29;63.55;99116.97;8425537;28;20058;-84
2022/09/09 12:12:21;;;;;;;4.45;1.65;;;;;;;22.17;63.10;99103.56;8429298;28;20052;-81
2022/09/09 12:16:37;;;;;;;3.85;1.17;;;;;;;21.96;64.98;99103.44;8409539;28;20393;-83
2022/09/09 12:20:38;;;;;;;7.95;1.35;;;;;;;22.06;64.16;99102.72;8405242;28;20055;-85
2022/09/09 12:24:47;;;;;;;4.20;1.23;;;;;;;21.92;63.00;99105.38;8431673;28;20085;-81
2022/09/09 12:29:15;;;;;;;3.42;1.20;;;;;;;21.78;64.63;99108.03;8417225;28;20052;-81
2022/09/09 12:33:19;;;;;;;5.38;1.10;;;;;;;21.65;64.28;99104.00;8387514;28;20063;-84
2022/09/09 12:37:39;;;;;;;6.38;1.27;;;;;;;21.52;64.24;99086.25;8390749;28;20062;-82
2022/09/09 12:41:41;;;;;;;5.32;1.25;;;;;;;21.49;64.87;99091.34;8366316;28;20137;-82
2022/09/09 12:45:42;;;;;;;1.25;0.60;;;;;;;21.65;64.53;99095.75;8374627;28;20043;-82
2022/09/09 12:49:44;;;;;;;1.80;0.80;;;;;;;21.64;63.97;99096.94;8397425;28;20499;-83
2022/09/09 12:53:50;;;;;;;2.90;1.02;;;;;;;21.66;62.46;99100.09;8397802;28;20119;-81
2022/09/09 12:57:51;;;;;;;1.35;0.80;;;;;;;21.68;61.21;99098.53;8406739;28;20051;-84
2022/09/09 13:01:59;;;;;;;2.95;1.00;;;;;;;21.91;61.65;99112.81;8407922;28;20037;-82
2022/09/09 13:06:25;;;;;;;3.65;1.05;;;;;;;22.19;60.94;99120.47;8411825;28;20140;-85
2022/09/09 13:10:28;;;;;;;4.03;1.20;;;;;;;22.26;60.79;99106.72;8403267;28;20064;-84
2022/09/09 13:14:34;;;;;;;3.05;1.10;;;;;;;22.30;59.71;99102.06;8418817;28;20389;-82
2022/09/09 13:18:38;;;;;;;2.08;1.10;;;;;;;22.29;59.61;99100.47;8403545;28;20143;-82
2022/09/09 13:22:40;;;;;;;8.65;1.23;;;;;;;23.42;57.32;99099.16;8421700;28;20058;-84
2022/09/09 13:26:41;;;;;;;3.30;1.33;;;;;;;24.76;53.47;99095.22;8425919;28;20055;-84
2022/09/09 13:30:44;;;;;;;4.97;1.20;;;;;;;24.88;53.99;99094.78;8419421;28;20047;-82
2022/09/09 13:34:58;;;;;;;4.80;1.30;;;;;;;25.81;50.78;99081.78;8415372;28;20075;-82
2022/09/09 13:39:02;;;;;;;4.32;1.27;;;;;;;27.37;49.16;99076.16;8408775;28;20062;-85
2022/09/09 13:43:05;;;;;;;5.03;1.20;;;;;;;28.73;47.33;99082.28;8417200;28;20036;-84
2022/09/09 13:47:09;;;;;;;4.50;1.15;;;;;;;29.36;44.85;99085.56;8393193;28;20055;-85
2022/09/09 13:51:33;;;;;;;3.97;1.38;;;;;;;30.31;43.09;99070.31;8398995;28;20482;-84
2022/09/09 13:55:36;;;;;;;3.00;1.10;;;;;;;30.93;41.89;99071.59;8275404;28;20470;-84
2022/09/09 13:59:37;;;;;;;3.95;1.17;;;;;;;31.82;40.22;99077.09;8233394;28;20051;-86
2022/09/09 14:03:38;;;;;;;2.70;1.20;;;;;;;31.80;40.03;99066.34;8265054;28;20177;-82
2022/09/09 14:07:40;;;;;;;4.32;1.38;;;;;;;31.56;40.42;99067.22;8262052;28;20050;-82
2022/09/09 14:11:42;;;;;;;4.07;1.38;;;;;;;31.74;39.84;99064.59;8268140;28;20595;-82
2022/09/09 14:15:43;;;;;;;3.08;1.15;;;;;;;31.98;38.99;99065.72;8245578;28;20050;-86
2022/09/09 14:19:45;;;;;;;6.78;1.30;;;;;;;32.39;37.89;99072.22;8243186;28;20050;-84
2022/09/09 14:23:48;;;;;;;3.88;1.40;;;;;;;32.12;37.78;99076.41;8245513;28;20050;-84
2022/09/09 14:27:51;;;;;;;3.13;1.10;;;;;;;31.77;37.89;99072.06;8247875;28;20558;-85
2022/09/09 14:31:51;;;;;;;4.00;1.30;;;;;;;31.11;39.34;99065.50;8280610;28;20052;-84
2022/09/09 14:35:57;;;;;;;2.17;1.20;;;;;;;29.61;41.07;99059.88;8326739;28;20514;-84
2022/09/09 14:39:58;;;;;;;3.65;1.58;;;;;;;28.28;43.82;99061.81;8326844;28;20046;-84
2022/09/09 14:44:00;;;;;;;5.32;1.60;;;;;;;27.31;46.10;99062.00;8325019;28;20113;-84
2022/09/09 14:48:01;;;;;;;4.60;1.38;;;;;;;26.48;47.84;99056.13;8325942;28;20041;-82
2022/09/09 14:52:03;;;;;;;4.50;1.30;;;;;;;26.00;49.42;99069.34;8309310;28;20068;-84
2022/09/09 14:56:05;;;;;;;3.83;1.30;;;;;;;25.54;49.88;99059.50;8327014;28;20633;-84
2022/09/09 15:00:09;;;;;;;3.45;1.30;;;;;;;25.18;50.57;99058.25;8336315;28;20045;-82
2022/09/09 15:04:12;;;;;;;9.75;1.20;;;;;;;24.88;51.75;99044.28;8345929;28;20053;-83
2022/09/09 15:08:16;;;;;;;2.75;1.30;;;;;;;24.53;52.42;99037.78;8360580;28;20047;-83
2022/09/09 15:12:18;;;;;;;1.75;1.27;;;;;;;24.21;53.37;99028.88;8408446;28;20048;-82
2022/09/09 15:16:21;;;;;;;6.82;1.48;;;;;;;23.99;54.98;99028.94;8406959;28;20457;-82
2022/09/09 15:20:23;;;;;;;5.72;1.45;;;;;;;23.73;55.58;99021.16;8419199;28;20086;-83
2022/09/09 15:24:25;;;;;;;4.93;1.25;;;;;;;23.49;55.91;99016.47;8405125;28;20044;-83
2022/09/09 15:28:26;;;;;;;3.03;1.30;;;;;;;23.29;56.42;99023.56;8408563;28;20146;-83
2022/09/09 15:32:27;;;;;;;2.83;1.10;;;;;;;23.07;57.43;99012.56;8407422;28;20060;-82
2022/09/09 15:36:29;;;;;;;2.65;1.10;;;;;;;22.93;58.57;99018.09;8413402;28;20408;-81
2022/09/09 15:40:33;;;;;;;4.18;1.27;;;;;;;22.81;59.38;99021.22;8416383;28;20511;-81
2022/09/09 15:44:42;;;;;;;3.08;1.35;;;;;;;22.70;60.38;99025.88;8418454;28;20103;-82
2022/09/09 15:48:46;;;;;;;3.35;1.50;;;;;;;22.57;61.57;99027.44;8400849;28;20056;-81
2022/09/09 15:52:49;;;;;;;2.28;1.30;;;;;;;22.39;62.31;99048.63;8420212;28;20078;-81
2022/09/09 15:56:55;;;;;;;4.18;1.60;;;;;;;22.20;63.27;99047.78;8380091;28;20084;-82
2022/09/09 16:01:07;;;;;;;4.32;1.80;;;;;;;22.02;64.78;99057.91;8360015;28;20047;-82
2022/09/09 16:05:09;;;;;;;4.18;1.60;;;;;;;21.81;65.81;99057.78;8371524;28;20482;-82
2022/09/09 16:09:10;;;;;;;3.60;1.98;;;;;;;21.65;66.55;99054.53;8423062;28;20056;-81
2022/09/09 16:13:13;;;;;;;10.88;2.35;;;;;;;21.47;67.58;99057.94;8400024;28;20119;-82
2022/09/09 16:17:15;;;;;;;5.15;1.88;;;;;;;21.32;68.56;99048.03;8401197;28;20098;-81
2022/09/09 16:21:19;;;;;;;5.53;1.90;;;;;;;21.16;69.73;99044.78;8426400;28;20051;-81
2022/09/09 16:25:20;;;;;;;7.18;1.80;;;;;;;21.02;70.64;99044.63;8398314;28;20102;-82
2022/09/09 16:29:22;;;;;;;7.22;2.72;;;;;;;20.89;71.63;99043.31;8414631;28;20064;-82
2022/09/09 16:33:26;;;;;;;17.02;5.78;;;;;;;20.77;71.83;99049.13;8363557;28;20048;-82
2022/09/09 16:37:27;;;;;;;28.75;9.07;;;;;;;20.64;72.86;99041.16;8399090;28;20391;-82
2022/09/09 16:41:29;;;;;;;12.85;3.80;;;;;;;20.48;73.37;99043.31;8397765;28;20037;-82
2022/09/09 16:45:30;;;;;;;8.57;2.03;;;;;;;20.35;74.28;99055.75;8397218;28;20494;-81
2022/09/09 16:49:31;;;;;;;4.97;2.55;;;;;;;20.21;74.66;99039.88;8415765;28;20524;-82
2022/09/09 16:53:33;;;;;;;3.20;2.20;;;;;;;20.04;75.32;99034.19;8355924;28;20075;-81
2022/09/09 16:57:34;;;;;;;16.60;6.07;;;;;;;19.86;76.30;99035.91;8408392;28;20044;-81
2022/09/09 17:01:37;;;;;;;7.78;4.05;;;;;;;19.69;76.91;99035.28;8412858;28;20496;-82
2022/09/09 17:05:41;;;;;;;16.20;5.88;;;;;;;19.57;77.53;99043.72;8417591;28;20412;-82
2022/09/09 17:09:42;;;;;;;16.17;5.10;;;;;;;19.43;78.21;99043.50;8427356;28;20413;-82
2022/09/09 17:13:44;;;;;;;10.55;3.58;;;;;;;19.31;78.13;99051.91;8416671;28;20135;-82
2022/09/09 17:17:48;;;;;;;11.25;2.75;;;;;;;19.16;78.39;99039.16;8425381;28;20050;-81
2022/09/09 17:21:49;;;;;;;4.38;2.17;;;;;;;19.03;78.44;99040.53;8417415;28;20041;-81
2022/09/09 17:25:57;;;;;;;10.65;2.38;;;;;;;18.92;78.62;99045.81;8379425;28;20105;-82
2022/09/09 17:29:58;;;;;;;4.88;2.03;;;;;;;18.85;78.64;99041.00;8393857;28;20040;-82
2022/09/09 17:34:00;;;;;;;8.88;2.38;;;;;;;18.77;78.62;99055.69;8402725;28;20044;-81
2022/09/09 17:38:00;;;;;;;8.52;1.80;;;;;;;18.69;79.17;99064.94;8431551;28;20420;-81
2022/09/09 17:42:02;;;;;;;6.90;2.20;;;;;;;18.64;79.38;99065.25;8395694;28;20397;-82
2022/09/09 17:46:23;;;;;;;5.13;1.90;;;;;;;18.60;79.36;99067.13;8415331;28;20044;-82
2022/09/09 17:50:24;;;;;;;10.18;2.55;;;;;;;18.56;79.59;99060.78;8413621;28;20047;-81
2022/09/09 17:54:25;;;;;;;8.15;2.13;;;;;;;18.53;79.50;99072.44;8401120;28;20056;-82
2022/09/09 17:58:26;;;;;;;6.72;1.83;;;;;;;18.50;79.75;99067.69;8410627;28;20527;-82
2022/09/09 18:02:27;;;;;;;15.68;2.60;;;;;;;18.45;79.81;99059.78;8389516;28;20076;-81
2022/09/09 18:06:32;;;;;;;12.15;2.53;;;;;;;18.41;79.80;99064.38;8384779;28;20056;-81
2022/09/09 18:10:34;;;;;;;4.40;2.08;;;;;;;18.38;79.76;99076.03;8394585;28;20718;-82
2022/09/09 18:14:35;;;;;;;3.95;2.33;;;;;;;18.42;79.74;99087.84;8402065;28;20565;-81
2022/09/09 18:18:36;;;;;;;18.17;2.70;;;;;;;18.45;79.57;99084.41;8395096;28;20053;-82
2022/09/09 18:22:37;;;;;;;6.32;2.58;;;;;;;18.45;79.81;99076.19;8406446;28;20063;-81
2022/09/09 18:26:39;;;;;;;6.13;2.60;;;;;;;18.44;80.00;99085.53;8396974;28;20080;-82
2022/09/09 18:30:40;;;;;;;4.80;2.55;;;;;;;18.42;80.21;99087.84;8390698;28;20062;-81
2022/09/09 18:34:41;;;;;;;6.20;3.30;;;;;;;18.37;80.55;99085.38;8383883;28;20044;-81
2022/09/09 18:38:42;;;;;;;10.88;2.88;;;;;;;18.33;80.74;99079.06;8392599;28;20068;-82
2022/09/09 18:42:46;;;;;;;6.43;3.20;;;;;;;18.27;80.82;99077.78;8394380;28;20076;-80
2022/09/09 18:46:47;;;;;;;10.25;3.08;;;;;;;18.23;80.82;99074.19;8396341;28;20478;-81
2022/09/09 18:50:48;;;;;;;7.40;2.88;;;;;;;18.22;80.50;99073.38;8373209;28;20816;-81
2022/09/09 18:54:49;;;;;;;6.75;3.38;;;;;;;18.21;80.44;99071.00;8398451;28;20051;-81
2022/09/09 18:58:55;;;;;;;7.15;3.28;;;;;;;18.17;80.36;99064.69;8409867;28;20037;-81
2022/09/09 19:02:56;;;;;;;11.77;3.30;;;;;;;18.14;80.24;99061.50;8396637;28;20056;-81
2022/09/09 19:06:58;;;;;;;7.60;3.05;;;;;;;18.12;80.33;99063.81;8399437;28;20131;-80